Vejen, Denmark
Current Conditions -  °F | °C
As of 7:50 PM on Friday 28 Nov 2014 (Local Time) from EKBI Reporting Station
Overcast Overcast  
Wind Chill: 30°   Ceiling: 2100
Heat Index: 39°   Visibility: 6mi
Dew Point: 32°   Wind: 17mph
Humidity: 75%   Direction: 100°E
Pressure: 30.18"   Gusts: NA
Location:  55.48°N, 9.15°E
Report Text: EKBI 281850Z AUTO 10015KT 9999NDV OVC021/// 04/M00 Q1022
Loading
Personal Weather Stations






























Interactive Weather Map New forecast layout! Learn more

10-Day Weather Forecast

Advertisements
Track Severe Weather on mobile